createdAt,value
2017-08-05T00:00:04.986Z,0
2017-08-05T00:00:25.627Z,0
2017-08-05T00:00:46.281Z,0
2017-08-05T00:01:06.921Z,0
2017-08-05T00:01:27.566Z,0
2017-08-05T00:01:48.194Z,0
2017-08-05T00:02:08.842Z,0
2017-08-05T00:02:29.490Z,0
2017-08-05T00:02:50.166Z,0
2017-08-05T00:03:10.856Z,0
2017-08-05T00:03:31.501Z,0
2017-08-05T00:03:52.163Z,0
2017-08-05T00:04:12.813Z,0
2017-08-05T00:04:33.470Z,0
2017-08-05T00:04:54.106Z,0
2017-08-05T00:05:14.743Z,0
2017-08-05T00:05:35.399Z,0
2017-08-05T00:05:56.031Z,0
2017-08-05T00:06:16.698Z,0
2017-08-05T00:06:37.350Z,0
2017-08-05T00:06:58.004Z,0
2017-08-05T00:07:18.727Z,0
2017-08-05T00:07:39.368Z,0
2017-08-05T00:08:00.138Z,0
2017-08-05T00:08:20.802Z,0
2017-08-05T00:08:41.441Z,0
2017-08-05T00:09:02.102Z,0
2017-08-05T00:09:22.775Z,0
2017-08-05T00:09:43.430Z,0
2017-08-05T00:10:04.067Z,0
2017-08-05T00:10:24.745Z,0
2017-08-05T00:10:45.394Z,0
2017-08-05T00:11:06.060Z,0
2017-08-05T00:11:26.715Z,0
2017-08-05T00:11:47.380Z,0
2017-08-05T00:12:08.032Z,0
2017-08-05T00:12:28.687Z,0
2017-08-05T00:12:49.325Z,0
2017-08-05T00:13:09.979Z,0
2017-08-05T00:13:30.670Z,0
2017-08-05T00:13:51.320Z,0
2017-08-05T00:14:11.959Z,0
2017-08-05T00:14:32.603Z,0
2017-08-05T00:14:53.255Z,0
2017-08-05T00:15:13.900Z,0
2017-08-05T00:15:34.554Z,0
2017-08-05T00:15:55.208Z,0
2017-08-05T00:16:15.836Z,0
2017-08-05T00:16:36.487Z,0
2017-08-05T00:16:57.132Z,0
2017-08-05T00:17:17.797Z,0
2017-08-05T00:17:38.464Z,0
2017-08-05T00:17:59.140Z,0
2017-08-05T00:18:19.818Z,0
2017-08-05T00:18:40.460Z,0
2017-08-05T00:19:01.138Z,0
2017-08-05T00:19:21.781Z,0
2017-08-05T00:19:42.435Z,0
2017-08-05T00:20:03.115Z,0
2017-08-05T00:20:23.758Z,0
2017-08-05T00:20:44.387Z,0
2017-08-05T00:21:05.018Z,0
2017-08-05T00:21:25.651Z,0
2017-08-05T00:21:46.291Z,0
2017-08-05T00:22:06.947Z,0
2017-08-05T00:22:27.625Z,0
2017-08-05T00:22:48.289Z,0
2017-08-05T00:23:08.958Z,0
2017-08-05T00:23:29.614Z,0
2017-08-05T00:23:50.251Z,0
2017-08-05T00:24:10.921Z,0
2017-08-05T00:24:31.617Z,0
2017-08-05T00:24:52.260Z,0
2017-08-05T00:25:12.916Z,0
2017-08-05T00:25:33.563Z,0
2017-08-05T00:25:54.248Z,0
2017-08-05T00:26:14.885Z,0
2017-08-05T00:26:35.544Z,0
2017-08-05T00:26:56.188Z,0
2017-08-05T00:27:16.852Z,0
2017-08-05T00:27:37.540Z,0
2017-08-05T00:27:58.193Z,0
2017-08-05T00:28:18.890Z,0
2017-08-05T00:28:39.530Z,0
2017-08-05T00:29:00.177Z,0
2017-08-05T00:29:20.831Z,0
2017-08-05T00:29:41.502Z,0
2017-08-05T00:30:02.145Z,0
2017-08-05T00:30:22.788Z,0
2017-08-05T00:30:43.430Z,0
2017-08-05T00:31:04.109Z,0
2017-08-05T00:31:24.742Z,0
2017-08-05T00:31:45.375Z,0
2017-08-05T00:32:06.025Z,0
2017-08-05T00:32:26.677Z,0
2017-08-05T00:32:47.310Z,0
2017-08-05T00:33:07.958Z,0
2017-08-05T00:33:28.626Z,0
2017-08-05T00:33:49.268Z,0
2017-08-05T00:34:09.924Z,0
2017-08-05T00:34:30.567Z,0
2017-08-05T00:34:51.212Z,0
2017-08-05T00:35:11.856Z,0
2017-08-05T00:35:32.516Z,0
2017-08-05T00:35:53.163Z,0
2017-08-05T00:36:13.809Z,0
2017-08-05T00:36:34.452Z,0
2017-08-05T00:36:55.089Z,0
2017-08-05T00:37:15.738Z,0
2017-08-05T00:37:36.368Z,0
2017-08-05T00:37:57.021Z,0
2017-08-05T00:38:17.659Z,0
2017-08-05T00:38:38.343Z,0
2017-08-05T00:38:58.979Z,0
2017-08-05T00:39:19.619Z,0
2017-08-05T00:39:40.263Z,0
2017-08-05T00:40:00.927Z,0
2017-08-05T00:40:21.607Z,0
2017-08-05T00:40:42.254Z,0
2017-08-05T00:41:02.922Z,0
2017-08-05T00:41:23.571Z,0
2017-08-05T00:41:45.162Z,0
2017-08-05T00:42:05.806Z,0
2017-08-05T00:42:26.439Z,0
2017-08-05T00:42:47.070Z,0
2017-08-05T00:43:07.716Z,0
2017-08-05T00:43:28.357Z,0
2017-08-05T00:43:49.030Z,0
2017-08-05T00:44:09.667Z,0
2017-08-05T00:44:30.302Z,0
2017-08-05T00:44:50.944Z,0
2017-08-05T00:45:11.586Z,0
2017-08-05T00:45:32.233Z,0
2017-08-05T00:45:52.889Z,0
2017-08-05T00:46:13.526Z,0
2017-08-05T00:46:34.163Z,0
2017-08-05T00:46:54.821Z,0
2017-08-05T00:47:15.491Z,0
2017-08-05T00:47:36.150Z,0
2017-08-05T00:47:56.796Z,0
2017-08-05T00:48:17.430Z,0
2017-08-05T00:48:38.097Z,0
2017-08-05T00:48:58.746Z,0
2017-08-05T00:49:19.403Z,0
2017-08-05T00:49:40.032Z,0
2017-08-05T00:50:00.676Z,0
2017-08-05T00:50:21.328Z,0
2017-08-05T00:50:41.964Z,0
2017-08-05T00:51:02.592Z,0
2017-08-05T00:51:23.231Z,0
2017-08-05T00:51:43.898Z,0
2017-08-05T00:52:04.553Z,0
2017-08-05T00:52:25.204Z,0
2017-08-05T00:52:45.852Z,0
2017-08-05T00:53:06.503Z,0
2017-08-05T00:53:27.139Z,0
2017-08-05T00:53:47.792Z,0
2017-08-05T00:54:08.455Z,0
2017-08-05T00:54:29.098Z,0
2017-08-05T00:54:49.770Z,0
2017-08-05T00:55:10.406Z,0
2017-08-05T00:55:31.113Z,0
2017-08-05T00:55:51.790Z,0
2017-08-05T00:56:12.454Z,0
2017-08-05T00:56:33.105Z,0
2017-08-05T00:56:53.774Z,0
2017-08-05T00:57:14.423Z,0
2017-08-05T00:57:35.100Z,0
2017-08-05T00:57:55.794Z,0
2017-08-05T00:58:17.439Z,0
2017-08-05T00:58:38.076Z,0
2017-08-05T00:58:58.735Z,0
2017-08-05T00:59:19.388Z,0
2017-08-05T00:59:40.034Z,0
2017-08-05T01:00:00.698Z,0
2017-08-05T01:00:21.359Z,0
2017-08-05T01:00:42.024Z,0
2017-08-05T01:01:02.655Z,0
2017-08-05T01:01:23.310Z,0
2017-08-05T01:01:43.994Z,0
2017-08-05T01:02:04.634Z,0
2017-08-05T01:02:25.285Z,0
2017-08-05T01:02:45.948Z,0
2017-08-05T01:03:06.627Z,0
2017-08-05T01:03:27.260Z,0
2017-08-05T01:03:47.973Z,0
2017-08-05T01:04:08.629Z,0
2017-08-05T01:04:29.278Z,0
2017-08-05T01:04:49.922Z,0
2017-08-05T01:05:10.576Z,0
2017-08-05T01:05:31.233Z,0
2017-08-05T01:05:51.891Z,0
2017-08-05T01:06:12.554Z,0
2017-08-05T01:06:33.192Z,0
2017-08-05T01:06:53.846Z,0
2017-08-05T01:07:14.499Z,0
2017-08-05T01:07:35.160Z,0
2017-08-05T01:07:55.814Z,0
2017-08-05T01:08:16.472Z,0
2017-08-05T01:08:37.118Z,0
2017-08-05T01:08:57.778Z,0
2017-08-05T01:09:18.420Z,0
2017-08-05T01:09:39.073Z,0
2017-08-05T01:09:59.759Z,0
2017-08-05T01:10:20.428Z,0
2017-08-05T01:10:41.062Z,0
2017-08-05T01:11:01.700Z,0
2017-08-05T01:11:22.353Z,0
2017-08-05T01:11:43.034Z,0
2017-08-05T01:12:03.670Z,0
2017-08-05T01:12:24.340Z,0
2017-08-05T01:12:44.985Z,0
2017-08-05T01:13:05.668Z,0
2017-08-05T01:13:26.342Z,0
2017-08-05T01:13:46.988Z,0
2017-08-05T01:14:07.642Z,0
2017-08-05T01:14:28.295Z,0
2017-08-05T01:14:48.939Z,0
2017-08-05T01:15:09.603Z,0
2017-08-05T01:15:30.232Z,0
2017-08-05T01:15:50.889Z,0
2017-08-05T01:16:11.532Z,0
2017-08-05T01:16:32.170Z,0
2017-08-05T01:16:52.840Z,0
2017-08-05T01:17:13.478Z,0
2017-08-05T01:17:34.135Z,0
2017-08-05T01:17:54.790Z,0
2017-08-05T01:18:15.422Z,0
2017-08-05T01:18:36.085Z,0
2017-08-05T01:18:56.733Z,0
2017-08-05T01:19:17.370Z,0
2017-08-05T01:19:38.053Z,0
2017-08-05T01:19:58.692Z,0
2017-08-05T01:20:19.352Z,0
2017-08-05T01:20:40.015Z,0
2017-08-05T01:21:00.667Z,0
2017-08-05T01:21:21.302Z,0
2017-08-05T01:21:41.949Z,0
2017-08-05T01:22:02.594Z,0
2017-08-05T01:22:23.255Z,0
2017-08-05T01:22:43.892Z,0
2017-08-05T01:23:04.543Z,0
2017-08-05T01:23:25.172Z,0
2017-08-05T01:23:45.822Z,0
2017-08-05T01:24:06.464Z,0
2017-08-05T01:24:27.104Z,0
2017-08-05T01:24:47.776Z,0
2017-08-05T01:25:08.401Z,0
2017-08-05T01:25:29.029Z,0
2017-08-05T01:25:49.680Z,0
2017-08-05T01:26:10.319Z,0
2017-08-05T01:26:30.976Z,0
2017-08-05T01:26:51.644Z,0
2017-08-05T01:27:12.280Z,0
2017-08-05T01:27:32.933Z,0
2017-08-05T01:27:53.598Z,0
2017-08-05T01:28:14.270Z,0
2017-08-05T01:28:34.923Z,0
2017-08-05T01:28:55.580Z,0
2017-08-05T01:29:16.246Z,0
2017-08-05T01:29:36.876Z,0
2017-08-05T01:29:57.514Z,0
2017-08-05T01:30:18.167Z,0
2017-08-05T01:30:38.815Z,0
2017-08-05T01:30:59.449Z,0
2017-08-05T01:31:20.096Z,0
2017-08-05T01:31:40.749Z,0
2017-08-05T01:32:01.405Z,0
2017-08-05T01:32:22.047Z,0
2017-08-05T01:32:42.697Z,0
2017-08-05T01:33:03.424Z,0
2017-08-05T01:33:24.067Z,0
2017-08-05T01:33:44.727Z,0
2017-08-05T01:34:05.375Z,0
2017-08-05T01:34:26.028Z,0
2017-08-05T01:34:46.673Z,0
2017-08-05T01:35:07.311Z,0
2017-08-05T01:35:27.965Z,0
2017-08-05T01:35:48.600Z,0
2017-08-05T01:36:09.274Z,0
2017-08-05T01:36:29.940Z,0
2017-08-05T01:36:50.586Z,0
2017-08-05T01:37:11.237Z,0
2017-08-05T01:37:31.874Z,0
2017-08-05T01:37:52.519Z,0
2017-08-05T01:38:13.186Z,0
2017-08-05T01:38:33.828Z,0
2017-08-05T01:38:54.459Z,0
2017-08-05T01:39:15.106Z,0
2017-08-05T01:39:35.742Z,0
2017-08-05T01:39:56.381Z,0
2017-08-05T01:40:17.025Z,0
2017-08-05T01:40:37.732Z,0
2017-08-05T01:40:58.376Z,0
2017-08-05T01:41:19.021Z,0
2017-08-05T01:41:39.657Z,0
2017-08-05T01:42:00.297Z,0
2017-08-05T01:42:20.970Z,0
2017-08-05T01:42:41.637Z,0
2017-08-05T01:43:02.277Z,0
2017-08-05T01:43:22.957Z,0
2017-08-05T01:43:43.628Z,0
2017-08-05T01:44:04.293Z,0
2017-08-05T01:44:24.974Z,0
2017-08-05T01:44:45.622Z,0
2017-08-05T01:45:06.264Z,0
2017-08-05T01:45:26.909Z,0
2017-08-05T01:45:47.552Z,0
2017-08-05T01:46:08.198Z,0
2017-08-05T01:46:28.846Z,0
2017-08-05T01:46:49.501Z,0
2017-08-05T01:47:10.150Z,0
2017-08-05T01:47:30.796Z,0
2017-08-05T01:47:51.429Z,0
2017-08-05T01:48:12.058Z,0
2017-08-05T01:48:32.713Z,0
2017-08-05T01:48:53.349Z,0
2017-08-05T01:49:14.004Z,0
2017-08-05T01:49:34.642Z,0
2017-08-05T01:49:55.289Z,0
2017-08-05T01:50:15.926Z,0
2017-08-05T01:50:36.567Z,0
2017-08-05T01:50:57.219Z,0
2017-08-05T01:51:17.856Z,0
2017-08-05T01:51:38.501Z,0
2017-08-05T01:51:59.143Z,0
2017-08-05T01:52:19.812Z,0
2017-08-05T01:52:40.452Z,0
2017-08-05T01:53:01.094Z,0
2017-08-05T01:53:21.728Z,0
2017-08-05T01:53:42.384Z,0
2017-08-05T01:54:03.030Z,0
2017-08-05T01:54:23.662Z,0
2017-08-05T01:54:44.293Z,0
2017-08-05T01:55:04.953Z,0
2017-08-05T01:55:25.590Z,0
2017-08-05T01:55:46.231Z,0
2017-08-05T01:56:06.904Z,0
2017-08-05T01:56:27.565Z,0
2017-08-05T01:56:48.190Z,0
2017-08-05T01:57:08.836Z,0
2017-08-05T01:57:29.482Z,0
2017-08-05T01:57:50.134Z,0
2017-08-05T01:58:10.776Z,0
2017-08-05T01:58:31.414Z,0
2017-08-05T01:58:52.055Z,0
2017-08-05T01:59:12.704Z,0
2017-08-05T01:59:33.352Z,0
2017-08-05T01:59:54.004Z,0
2017-08-05T02:00:14.634Z,0
2017-08-05T02:00:35.315Z,0
2017-08-05T02:00:55.983Z,0
2017-08-05T02:01:16.653Z,0
2017-08-05T02:01:37.285Z,0
2017-08-05T02:01:57.973Z,0
2017-08-05T02:02:18.608Z,0
2017-08-05T02:02:39.245Z,0
2017-08-05T02:02:59.902Z,0
2017-08-05T02:03:20.540Z,0
2017-08-05T02:03:41.224Z,0
2017-08-05T02:04:01.859Z,0
2017-08-05T02:04:22.498Z,0
2017-08-05T02:04:43.145Z,0
2017-08-05T02:05:03.845Z,0
2017-08-05T02:05:24.484Z,0
2017-08-05T02:05:45.126Z,0
2017-08-05T02:06:05.770Z,0
2017-08-05T02:06:26.449Z,0
2017-08-05T02:06:47.117Z,0
2017-08-05T02:07:07.755Z,0
2017-08-05T02:07:28.394Z,0
2017-08-05T02:07:49.049Z,0
2017-08-05T02:08:09.735Z,0
2017-08-05T02:08:30.395Z,0
2017-08-05T02:08:51.025Z,0
2017-08-05T02:09:11.685Z,0
2017-08-05T02:09:32.343Z,0
2017-08-05T02:09:52.996Z,0
2017-08-05T02:10:13.656Z,0
2017-08-05T02:10:34.344Z,0
2017-08-05T02:10:54.996Z,0
2017-08-05T02:11:15.691Z,0
2017-08-05T02:11:36.373Z,0
2017-08-05T02:11:57.040Z,0
2017-08-05T02:12:17.682Z,0
2017-08-05T02:12:38.337Z,0
2017-08-05T02:12:58.993Z,0
2017-08-05T02:13:19.646Z,0
2017-08-05T02:13:40.305Z,0
2017-08-05T02:14:00.945Z,0
2017-08-05T02:14:21.581Z,0
2017-08-05T02:14:42.224Z,0
2017-08-05T02:15:02.916Z,0
2017-08-05T02:15:23.579Z,0
2017-08-05T02:15:44.234Z,0
2017-08-05T02:16:04.880Z,0
2017-08-05T02:16:25.566Z,0
2017-08-05T02:16:46.235Z,0
2017-08-05T02:17:06.879Z,0
2017-08-05T02:17:27.524Z,0
2017-08-05T02:17:48.162Z,0
2017-08-05T02:18:08.823Z,0
2017-08-05T02:18:29.458Z,0
2017-08-05T02:18:50.099Z,0
2017-08-05T02:19:10.750Z,0
2017-08-05T02:19:31.406Z,0
2017-08-05T02:19:52.088Z,0
2017-08-05T02:20:12.761Z,0
2017-08-05T02:20:33.401Z,0
2017-08-05T02:20:54.042Z,0
2017-08-05T02:21:14.691Z,0
2017-08-05T02:21:35.382Z,0
2017-08-05T02:21:56.036Z,0
2017-08-05T02:22:16.689Z,0
2017-08-05T02:22:37.319Z,0
2017-08-05T02:22:57.976Z,0
2017-08-05T02:23:18.604Z,0
2017-08-05T02:23:39.252Z,0
2017-08-05T02:23:59.905Z,0
2017-08-05T02:24:20.560Z,0
2017-08-05T02:24:41.209Z,0
2017-08-05T02:25:01.850Z,0
2017-08-05T02:25:22.478Z,0
2017-08-05T02:25:43.117Z,0
2017-08-05T02:26:03.786Z,0
2017-08-05T02:26:24.432Z,0
2017-08-05T02:26:45.117Z,0
2017-08-05T02:27:05.761Z,0
2017-08-05T02:27:26.413Z,0
2017-08-05T02:27:47.077Z,0
2017-08-05T02:28:07.738Z,0
2017-08-05T02:28:28.390Z,0
2017-08-05T02:28:49.031Z,0
2017-08-05T02:29:09.669Z,0
2017-08-05T02:29:30.327Z,0
2017-08-05T02:29:50.968Z,0
2017-08-05T02:30:11.636Z,0
2017-08-05T02:30:32.292Z,0
2017-08-05T02:30:52.996Z,0
2017-08-05T02:31:13.643Z,0
2017-08-05T02:31:34.307Z,0
2017-08-05T02:31:54.992Z,0
2017-08-05T02:32:15.674Z,0
2017-08-05T02:32:36.346Z,0
2017-08-05T02:32:57.002Z,0
2017-08-05T02:33:17.652Z,0
2017-08-05T02:33:38.282Z,0
2017-08-05T02:33:58.942Z,0
2017-08-05T02:34:19.614Z,0
2017-08-05T02:34:40.252Z,0
2017-08-05T02:35:00.891Z,0
2017-08-05T02:35:21.522Z,0
2017-08-05T02:35:42.159Z,0
2017-08-05T02:36:02.814Z,0
2017-08-05T02:36:23.463Z,0
2017-08-05T02:36:44.109Z,0
2017-08-05T02:37:04.743Z,0
2017-08-05T02:37:25.386Z,0
2017-08-05T02:37:46.034Z,0
2017-08-05T02:38:06.709Z,0
2017-08-05T02:38:27.380Z,0
2017-08-05T02:38:48.028Z,0
2017-08-05T02:39:08.680Z,0
2017-08-05T02:39:29.323Z,0
2017-08-05T02:39:49.987Z,0
2017-08-05T02:40:10.635Z,0
2017-08-05T02:40:31.291Z,0
2017-08-05T02:40:51.948Z,0
2017-08-05T02:41:12.607Z,0
2017-08-05T02:41:33.241Z,0
2017-08-05T02:41:53.878Z,0
2017-08-05T02:42:14.524Z,0
2017-08-05T02:42:35.174Z,0
2017-08-05T02:42:55.824Z,0
2017-08-05T02:43:16.466Z,0
2017-08-05T02:43:37.142Z,0
2017-08-05T02:43:57.797Z,0
2017-08-05T02:44:18.439Z,0
2017-08-05T02:44:39.106Z,0
2017-08-05T02:44:59.767Z,0
2017-08-05T02:45:20.442Z,0
2017-08-05T02:45:41.087Z,0
2017-08-05T02:46:01.716Z,0
2017-08-05T02:46:22.372Z,0
2017-08-05T02:46:43.043Z,0
2017-08-05T02:47:03.678Z,0
2017-08-05T02:47:24.362Z,0
2017-08-05T02:47:45.032Z,0
2017-08-05T02:48:05.688Z,0
2017-08-05T02:48:26.330Z,0
2017-08-05T02:48:46.977Z,0
2017-08-05T02:49:07.658Z,0
2017-08-05T02:49:28.339Z,0
2017-08-05T02:49:48.994Z,0
2017-08-05T02:50:09.677Z,0
2017-08-05T02:50:30.355Z,0
2017-08-05T02:50:51.029Z,0
2017-08-05T02:51:11.680Z,0
2017-08-05T02:51:32.345Z,0
2017-08-05T02:51:52.992Z,0
2017-08-05T02:52:13.643Z,0
2017-08-05T02:52:34.283Z,0
2017-08-05T02:52:54.944Z,0
2017-08-05T02:53:15.593Z,0
2017-08-05T02:53:36.222Z,0
2017-08-05T02:53:56.867Z,0
2017-08-05T02:54:17.507Z,0
2017-08-05T02:54:38.161Z,0
2017-08-05T02:54:58.817Z,0
2017-08-05T02:55:19.463Z,0
2017-08-05T02:55:40.111Z,0
2017-08-05T02:56:00.786Z,0
2017-08-05T02:56:21.415Z,0
2017-08-05T02:56:42.075Z,0
2017-08-05T02:57:02.736Z,0
2017-08-05T02:57:23.401Z,0
2017-08-05T02:57:44.064Z,0
2017-08-05T02:58:04.768Z,0
2017-08-05T02:58:25.410Z,4
2017-08-05T02:58:46.043Z,4
2017-08-05T02:59:06.712Z,4
2017-08-05T02:59:27.334Z,4
2017-08-05T02:59:47.998Z,4
2017-08-05T03:00:08.636Z,4
2017-08-05T03:00:29.288Z,0
2017-08-05T03:00:49.927Z,0
2017-08-05T03:01:10.580Z,0
2017-08-05T03:01:31.218Z,0
2017-08-05T03:01:51.870Z,4
2017-08-05T03:02:12.511Z,4
2017-08-05T03:02:33.150Z,4
2017-08-05T03:02:53.792Z,4
2017-08-05T03:03:14.447Z,4
2017-08-05T03:03:35.123Z,0
2017-08-05T03:03:55.809Z,4
2017-08-05T03:04:16.447Z,4
2017-08-05T03:04:37.081Z,4
2017-08-05T03:04:57.743Z,4
2017-08-05T03:05:18.403Z,4
2017-08-05T03:05:39.074Z,4
2017-08-05T03:05:59.743Z,4
2017-08-05T03:06:20.409Z,4
2017-08-05T03:06:41.057Z,4
2017-08-05T03:07:01.711Z,8
2017-08-05T03:07:22.346Z,4
2017-08-05T03:07:42.983Z,4
2017-08-05T03:08:03.636Z,8
2017-08-05T03:08:24.283Z,8
2017-08-05T03:08:44.951Z,4
2017-08-05T03:09:05.586Z,8
2017-08-05T03:09:26.239Z,8
2017-08-05T03:09:46.865Z,8
2017-08-05T03:10:07.506Z,8
2017-08-05T03:10:28.148Z,8
2017-08-05T03:10:48.779Z,12
2017-08-05T03:11:09.441Z,8
2017-08-05T03:11:30.096Z,12
2017-08-05T03:11:50.751Z,8
2017-08-05T03:12:11.420Z,12
2017-08-05T03:12:32.056Z,12
2017-08-05T03:12:52.692Z,12
2017-08-05T03:13:13.334Z,12
2017-08-05T03:13:33.998Z,12
2017-08-05T03:13:54.645Z,16
2017-08-05T03:14:15.296Z,16
2017-08-05T03:14:35.975Z,16
2017-08-05T03:14:56.637Z,16
2017-08-05T03:15:17.275Z,16
2017-08-05T03:15:37.941Z,20
2017-08-05T03:15:58.590Z,20
2017-08-05T03:16:19.221Z,20
2017-08-05T03:16:39.868Z,20
2017-08-05T03:17:00.535Z,20
2017-08-05T03:17:21.178Z,24
2017-08-05T03:17:41.825Z,24
2017-08-05T03:18:02.480Z,28
2017-08-05T03:18:23.122Z,24
2017-08-05T03:18:43.756Z,24
2017-08-05T03:19:04.457Z,28
2017-08-05T03:19:25.109Z,28
2017-08-05T03:19:45.756Z,28
2017-08-05T03:20:06.429Z,32
2017-08-05T03:20:27.096Z,32
2017-08-05T03:20:47.757Z,32
2017-08-05T03:21:08.418Z,36
2017-08-05T03:21:29.092Z,40
2017-08-05T03:21:49.738Z,40
2017-08-05T03:22:10.384Z,40
2017-08-05T03:22:31.033Z,40
2017-08-05T03:22:51.678Z,44
2017-08-05T03:23:12.342Z,44
2017-08-05T03:23:33.008Z,44
2017-08-05T03:23:53.650Z,48
2017-08-05T03:24:14.304Z,48
2017-08-05T03:24:34.955Z,48
2017-08-05T03:24:55.588Z,52
2017-08-05T03:25:16.239Z,56
2017-08-05T03:25:36.874Z,56
2017-08-05T03:25:57.527Z,60
2017-08-05T03:26:18.202Z,64
2017-08-05T03:26:38.883Z,68
2017-08-05T03:26:59.529Z,68
2017-08-05T03:27:20.179Z,72
2017-08-05T03:27:40.829Z,68
2017-08-05T03:28:01.461Z,72
2017-08-05T03:28:22.102Z,76
2017-08-05T03:28:42.759Z,80
2017-08-05T03:29:03.445Z,84
2017-08-05T03:29:24.083Z,84
2017-08-05T03:29:44.745Z,88
2017-08-05T03:30:05.386Z,92
2017-08-05T03:30:26.036Z,92
2017-08-05T03:30:46.710Z,96
2017-08-05T03:31:07.366Z,100
2017-08-05T03:31:28.030Z,100
2017-08-05T03:31:48.664Z,104
2017-08-05T03:32:09.298Z,108
2017-08-05T03:32:29.930Z,112
2017-08-05T03:32:50.568Z,112
2017-08-05T03:33:11.236Z,116
2017-08-05T03:33:31.931Z,120
2017-08-05T03:33:52.589Z,124
2017-08-05T03:34:13.261Z,128
2017-08-05T03:34:33.912Z,128
2017-08-05T03:34:54.552Z,136
2017-08-05T03:35:15.187Z,136
2017-08-05T03:35:35.844Z,144
2017-08-05T03:35:56.485Z,148
2017-08-05T03:36:17.130Z,148
2017-08-05T03:36:37.777Z,156
2017-08-05T03:36:58.431Z,160
2017-08-05T03:37:19.067Z,160
2017-08-05T03:37:39.706Z,160
2017-08-05T03:38:00.373Z,164
2017-08-05T03:38:21.019Z,164
2017-08-05T03:38:41.683Z,164
2017-08-05T03:39:02.333Z,168
2017-08-05T03:39:22.976Z,168
2017-08-05T03:39:43.607Z,172
2017-08-05T03:40:04.279Z,172
2017-08-05T03:40:24.934Z,176
2017-08-05T03:40:45.581Z,172
2017-08-05T03:41:06.235Z,176
2017-08-05T03:41:26.876Z,180
2017-08-05T03:41:47.529Z,184
2017-08-05T03:42:08.183Z,192
2017-08-05T03:42:28.847Z,196
2017-08-05T03:42:49.507Z,204
2017-08-05T03:43:10.146Z,208
2017-08-05T03:43:30.794Z,212
2017-08-05T03:43:51.447Z,220
2017-08-05T03:44:12.097Z,220
2017-08-05T03:44:32.724Z,220
2017-08-05T03:44:53.368Z,228
2017-08-05T03:45:14.026Z,228
2017-08-05T03:45:34.669Z,236
2017-08-05T03:45:55.334Z,236
2017-08-05T03:46:15.986Z,240
2017-08-05T03:46:36.631Z,244
2017-08-05T03:46:57.281Z,248
2017-08-05T03:47:17.957Z,248
2017-08-05T03:47:38.599Z,248
2017-08-05T03:47:59.242Z,244
2017-08-05T03:48:19.894Z,244
2017-08-05T03:48:40.548Z,244
2017-08-05T03:49:01.201Z,240
2017-08-05T03:49:21.846Z,244
2017-08-05T03:49:42.491Z,244
2017-08-05T03:50:03.150Z,244
2017-08-05T03:50:23.785Z,244
2017-08-05T03:50:44.426Z,236
2017-08-05T03:51:05.071Z,236
2017-08-05T03:51:25.755Z,236
2017-08-05T03:51:46.397Z,236
2017-08-05T03:52:07.044Z,236
2017-08-05T03:52:27.699Z,240
2017-08-05T03:52:48.366Z,248
2017-08-05T03:53:09.002Z,252
2017-08-05T03:53:29.643Z,264
2017-08-05T03:53:50.328Z,276
2017-08-05T03:54:10.974Z,284
2017-08-05T03:54:31.612Z,296
2017-08-05T03:54:52.246Z,308
2017-08-05T03:55:12.883Z,324
2017-08-05T03:55:33.548Z,340
2017-08-05T03:55:54.217Z,356
2017-08-05T03:56:14.877Z,372
2017-08-05T03:56:35.533Z,392
2017-08-05T03:56:56.167Z,404
2017-08-05T03:57:16.828Z,420
2017-08-05T03:57:37.495Z,432
2017-08-05T03:57:58.139Z,440
2017-08-05T03:58:18.791Z,452
2017-08-05T03:58:39.461Z,464
2017-08-05T03:59:00.113Z,480
2017-08-05T03:59:20.786Z,492
2017-08-05T03:59:41.436Z,500
2017-08-05T04:00:02.141Z,512
2017-08-05T04:00:22.825Z,520
2017-08-05T04:00:43.461Z,532
2017-08-05T04:01:04.114Z,540
2017-08-05T04:01:24.782Z,548
2017-08-05T04:01:45.432Z,560
2017-08-05T04:02:06.077Z,568
2017-08-05T04:02:26.760Z,576
2017-08-05T04:02:47.413Z,584
2017-08-05T04:03:08.055Z,596
2017-08-05T04:03:28.724Z,604
2017-08-05T04:03:49.390Z,612
2017-08-05T04:04:10.040Z,624
2017-08-05T04:04:30.696Z,636
2017-08-05T04:04:51.357Z,648
2017-08-05T04:05:11.995Z,664
2017-08-05T04:05:32.632Z,672
2017-08-05T04:05:53.291Z,684
2017-08-05T04:06:13.922Z,692
2017-08-05T04:06:34.570Z,696
2017-08-05T04:07:06.086Z,708
2017-08-05T04:07:26.728Z,716
2017-08-05T04:07:47.366Z,724
2017-08-05T04:08:08.027Z,732
2017-08-05T04:08:28.681Z,736
2017-08-05T04:08:49.345Z,748
2017-08-05T04:09:10.010Z,760
2017-08-05T04:09:30.657Z,768
2017-08-05T04:09:51.295Z,780
2017-08-05T04:10:11.954Z,788
2017-08-05T04:10:32.592Z,804
2017-08-05T04:10:53.235Z,808
2017-08-05T04:11:13.881Z,820
2017-08-05T04:11:34.510Z,832
2017-08-05T04:11:55.158Z,836
2017-08-05T04:12:15.816Z,844
2017-08-05T04:12:36.458Z,852
2017-08-05T04:12:57.112Z,860
2017-08-05T04:13:17.763Z,864
2017-08-05T04:13:38.432Z,868
2017-08-05T04:13:59.096Z,872
2017-08-05T04:14:19.763Z,880
2017-08-05T04:14:40.409Z,884
2017-08-05T04:15:01.093Z,884
2017-08-05T04:15:21.749Z,892
2017-08-05T04:15:42.399Z,892
2017-08-05T04:16:03.044Z,896
2017-08-05T04:16:23.677Z,900
2017-08-05T04:16:44.310Z,904
2017-08-05T04:17:04.998Z,904
2017-08-05T04:17:25.630Z,908
2017-08-05T04:17:46.284Z,912
2017-08-05T04:18:06.937Z,924
2017-08-05T04:18:27.572Z,936
2017-08-05T04:18:48.214Z,952
2017-08-05T04:19:08.864Z,968
2017-08-05T04:19:29.519Z,980
2017-08-05T04:19:50.160Z,1000
2017-08-05T04:20:10.815Z,1012
2017-08-05T04:20:31.454Z,1024
2017-08-05T04:20:52.100Z,1040
2017-08-05T04:21:12.756Z,1060
2017-08-05T04:21:33.402Z,1084
2017-08-05T04:21:54.035Z,1112
2017-08-05T04:22:14.689Z,1140
2017-08-05T04:22:35.330Z,1160
2017-08-05T04:22:55.987Z,1176
2017-08-05T04:23:16.618Z,1196
2017-08-05T04:23:37.270Z,1212
2017-08-05T04:23:57.920Z,1220
2017-08-05T04:24:18.581Z,1220
2017-08-05T04:24:39.230Z,1224
2017-08-05T04:24:59.891Z,1220
2017-08-05T04:25:20.532Z,1212
2017-08-05T04:25:41.177Z,1204
2017-08-05T04:26:01.828Z,1196
2017-08-05T04:26:22.476Z,1192
2017-08-05T04:26:43.145Z,1184
2017-08-05T04:27:03.795Z,1180
2017-08-05T04:27:24.473Z,1184
2017-08-05T04:27:45.127Z,1188
2017-08-05T04:28:05.770Z,1200
2017-08-05T04:28:26.408Z,1216
2017-08-05T04:28:47.068Z,1228
2017-08-05T04:29:07.706Z,1244
2017-08-05T04:29:28.358Z,1260
2017-08-05T04:29:48.998Z,1276
2017-08-05T04:30:09.660Z,1288
2017-08-05T04:30:30.328Z,1288
2017-08-05T04:30:50.985Z,1292
2017-08-05T04:31:11.644Z,1300
2017-08-05T04:31:32.298Z,1308
2017-08-05T04:31:52.947Z,1320
2017-08-05T04:32:13.600Z,1328
2017-08-05T04:32:34.240Z,1332
2017-08-05T04:32:54.884Z,1336
2017-08-05T04:33:15.531Z,1344
2017-08-05T04:33:36.172Z,1348
2017-08-05T04:33:56.824Z,1356
2017-08-05T04:34:17.496Z,1364
2017-08-05T04:34:38.142Z,1364
2017-08-05T04:34:58.819Z,1364
2017-08-05T04:35:19.470Z,1364
2017-08-05T04:35:40.137Z,1356
2017-08-05T04:36:00.775Z,1356
2017-08-05T04:36:21.432Z,1352
2017-08-05T04:36:42.089Z,1348
2017-08-05T04:37:02.737Z,1344
2017-08-05T04:37:23.390Z,1344
2017-08-05T04:37:44.026Z,1344
2017-08-05T04:38:04.673Z,1344
2017-08-05T04:38:25.321Z,1340
2017-08-05T04:38:45.962Z,1340
2017-08-05T04:39:06.623Z,1340
2017-08-05T04:39:27.266Z,1340
2017-08-05T04:39:47.906Z,1340
2017-08-05T04:40:08.556Z,1340
2017-08-05T04:40:29.184Z,1340
2017-08-05T04:40:49.827Z,1344
2017-08-05T04:41:10.468Z,1348
2017-08-05T04:41:31.111Z,1352
2017-08-05T04:41:51.768Z,1356
2017-08-05T04:42:12.429Z,1360
2017-08-05T04:42:33.066Z,1364
2017-08-05T04:42:53.707Z,1364
2017-08-05T04:43:14.349Z,1368
2017-08-05T04:43:35.001Z,1372
2017-08-05T04:43:55.656Z,1372
2017-08-05T04:44:16.298Z,1376
2017-08-05T04:44:36.945Z,1380
2017-08-05T04:44:57.585Z,1384
2017-08-05T04:45:18.312Z,1388
2017-08-05T04:45:38.981Z,1388
2017-08-05T04:45:59.628Z,1392
2017-08-05T04:46:20.265Z,1400
2017-08-05T04:46:40.911Z,1400
2017-08-05T04:47:01.567Z,1404
2017-08-05T04:47:22.211Z,1408
2017-08-05T04:47:42.917Z,1412
2017-08-05T04:48:03.558Z,1412
2017-08-05T04:48:24.207Z,1416
2017-08-05T04:48:44.867Z,1416
2017-08-05T04:49:05.511Z,1420
2017-08-05T04:49:26.150Z,1424
2017-08-05T04:49:46.778Z,1428
2017-08-05T04:50:07.411Z,1432
2017-08-05T04:50:28.058Z,1436
2017-08-05T04:50:48.703Z,1436
2017-08-05T04:51:09.392Z,1440
2017-08-05T04:51:30.045Z,1440
2017-08-05T04:51:50.677Z,1448
2017-08-05T04:52:11.317Z,1448
2017-08-05T04:52:31.994Z,1452
2017-08-05T04:52:52.645Z,1452
2017-08-05T04:53:13.293Z,1452
2017-08-05T04:53:33.948Z,1460
2017-08-05T04:53:54.593Z,1460
2017-08-05T04:54:15.241Z,1464
2017-08-05T04:54:35.885Z,1468
2017-08-05T04:54:56.521Z,1468
2017-08-05T04:55:17.164Z,1476
2017-08-05T04:55:37.821Z,1480
2017-08-05T04:55:58.451Z,1484
2017-08-05T04:56:19.101Z,1484
2017-08-05T04:56:39.755Z,1492
2017-08-05T04:57:00.398Z,1492